createdAt,value
2018-12-06T00:00:21.944Z,2.12
2018-12-06T00:02:51.481Z,2.10
2018-12-06T00:05:20.173Z,2.09
2018-12-06T00:07:59.993Z,2.07
2018-12-06T00:10:28.784Z,2.05
2018-12-06T00:12:57.779Z,2.01
2018-12-06T00:15:28.955Z,2.03
2018-12-06T00:17:57.918Z,1.97
2018-12-06T00:20:27.732Z,2.00
2018-12-06T00:22:57.365Z,1.97
2018-12-06T00:25:26.145Z,1.94
2018-12-06T00:27:54.906Z,1.93
2018-12-06T00:34:00.377Z,1.99
2018-12-06T00:36:29.238Z,2.03
2018-12-06T00:38:58.205Z,2.06
2018-12-06T00:41:27.998Z,2.08
2018-12-06T00:43:56.807Z,2.10
2018-12-06T00:46:26.373Z,2.11
2018-12-06T00:48:55.728Z,2.12
2018-12-06T00:51:25.358Z,2.21
2018-12-06T00:53:54.214Z,2.26
2018-12-06T00:56:23.024Z,2.35
2018-12-06T00:59:09.477Z,2.40
2018-12-06T01:01:39.284Z,2.49
2018-12-06T01:04:09.055Z,2.57
2018-12-06T01:06:38.432Z,2.65
2018-12-06T01:09:09.389Z,2.66
2018-12-06T01:11:38.435Z,2.78
2018-12-06T01:14:12.046Z,2.85
2018-12-06T01:16:41.733Z,2.85
2018-12-06T01:19:11.136Z,2.97
2018-12-06T01:21:40.810Z,3.03
2018-12-06T01:24:10.617Z,3.06
2018-12-06T01:26:39.538Z,3.11
2018-12-06T01:29:09.365Z,3.15
2018-12-06T01:31:38.546Z,3.18
2018-12-06T01:34:07.395Z,3.21
2018-12-06T01:36:36.426Z,3.27
2018-12-06T01:39:07.342Z,3.27
2018-12-06T01:41:36.542Z,3.29
2018-12-06T01:46:50.534Z,3.26
2018-12-06T01:49:20.006Z,3.26
2018-12-06T01:51:49.427Z,3.26
2018-12-06T01:54:18.191Z,3.25
2018-12-06T01:56:46.945Z,3.27
2018-12-06T01:59:16.170Z,3.28
2018-12-06T02:01:45.547Z,3.27
2018-12-06T02:04:14.886Z,3.29
2018-12-06T02:06:43.713Z,3.30
2018-12-06T02:09:12.429Z,3.30
2018-12-06T02:11:41.215Z,3.40
2018-12-06T02:14:10.083Z,3.46
2018-12-06T02:16:39.482Z,3.48
2018-12-06T02:19:09.074Z,3.54
2018-12-06T02:21:39.291Z,3.57
2018-12-06T02:24:08.804Z,3.61
2018-12-06T02:26:37.634Z,3.62
2018-12-06T02:29:06.477Z,3.67
2018-12-06T02:31:35.242Z,3.71
2018-12-06T02:34:04.065Z,3.72
2018-12-06T02:36:32.992Z,3.74
2018-12-06T02:39:01.759Z,3.75
2018-12-06T02:41:31.089Z,3.75
2018-12-06T02:43:59.897Z,3.77
2018-12-06T02:46:30.895Z,3.80
2018-12-06T02:49:00.321Z,3.79
2018-12-06T02:51:29.898Z,3.78
2018-12-06T02:53:58.878Z,3.79
2018-12-06T02:59:12.394Z,3.78
2018-12-06T03:01:42.211Z,3.75
2018-12-06T03:04:13.509Z,3.69
2018-12-06T03:06:42.288Z,3.68
2018-12-06T03:09:11.110Z,3.70
2018-12-06T03:11:39.968Z,3.71
2018-12-06T03:14:09.245Z,3.72
2018-12-06T03:16:38.351Z,3.72
2018-12-06T03:19:08.497Z,3.71
2018-12-06T03:21:37.437Z,3.69
2018-12-06T03:24:06.909Z,3.71
2018-12-06T03:26:36.602Z,3.72
2018-12-06T03:29:05.483Z,3.70
2018-12-06T03:31:34.205Z,3.71
2018-12-06T03:34:03.039Z,3.71
2018-12-06T03:36:31.763Z,3.71
2018-12-06T03:39:00.595Z,3.71
2018-12-06T03:41:30.239Z,3.73
2018-12-06T03:43:59.198Z,3.72
2018-12-06T03:46:28.839Z,3.73
2018-12-06T03:48:58.714Z,3.73
2018-12-06T03:51:28.327Z,3.71
2018-12-06T03:53:57.201Z,3.72
2018-12-06T03:56:26.015Z,3.73
2018-12-06T03:58:54.723Z,3.73
2018-12-06T04:01:24.044Z,3.74
2018-12-06T04:03:53.670Z,3.75
2018-12-06T04:06:22.438Z,3.76
2018-12-06T04:08:51.192Z,3.75
2018-12-06T04:11:20.718Z,3.75
2018-12-06T04:13:49.450Z,3.71
2018-12-06T04:16:18.274Z,3.73
2018-12-06T04:18:47.079Z,3.74
2018-12-06T04:21:15.841Z,3.73
2018-12-06T04:23:45.224Z,3.71
2018-12-06T04:26:14.799Z,3.69
2018-12-06T04:28:44.011Z,3.67
2018-12-06T04:31:13.091Z,3.65
2018-12-06T04:33:41.833Z,3.63
2018-12-06T04:36:11.483Z,3.60
2018-12-06T04:38:40.466Z,3.55
2018-12-06T04:41:10.302Z,3.54
2018-12-06T04:43:39.924Z,3.51
2018-12-06T04:46:09.943Z,3.49
2018-12-06T04:48:39.710Z,3.45
2018-12-06T04:51:09.465Z,3.42
2018-12-06T04:53:38.448Z,3.37
2018-12-06T04:56:08.836Z,3.33
2018-12-06T04:58:38.030Z,3.30
2018-12-06T05:01:07.723Z,3.20
2018-12-06T05:03:37.905Z,3.21
2018-12-06T05:06:06.763Z,3.16
2018-12-06T05:08:36.188Z,3.09
2018-12-06T05:11:05.462Z,3.02
2018-12-06T05:13:34.281Z,2.95
2018-12-06T05:16:02.969Z,2.89
2018-12-06T05:18:31.786Z,2.83
2018-12-06T05:23:23.376Z,2.78
2018-12-06T05:25:53.067Z,2.76
2018-12-06T05:28:21.774Z,2.69
2018-12-06T05:30:51.150Z,2.71
2018-12-06T05:33:19.846Z,2.70
2018-12-06T05:35:48.582Z,2.66
2018-12-06T05:38:17.309Z,2.61
2018-12-06T05:40:46.726Z,2.54
2018-12-06T05:43:15.509Z,2.47
2018-12-06T05:45:46.547Z,2.43
2018-12-06T05:48:16.050Z,2.37
2018-12-06T05:50:45.431Z,2.31
2018-12-06T05:53:14.250Z,2.26
2018-12-06T05:55:43.067Z,2.25
2018-12-06T05:58:11.991Z,2.23
2018-12-06T06:00:40.793Z,2.20
2018-12-06T06:03:10.750Z,2.14
2018-12-06T06:05:40.466Z,2.10
2018-12-06T06:08:09.764Z,2.05
2018-12-06T06:10:38.675Z,1.98
2018-12-06T06:13:07.447Z,1.94
2018-12-06T06:15:36.299Z,1.87
2018-12-06T06:18:05.470Z,1.82
2018-12-06T06:20:34.244Z,1.75
2018-12-06T06:23:03.706Z,1.71
2018-12-06T06:25:33.837Z,1.62
2018-12-06T06:28:03.194Z,1.60
2018-12-06T06:30:32.257Z,1.57
2018-12-06T06:33:01.967Z,1.52
2018-12-06T06:35:30.754Z,1.51
2018-12-06T06:38:04.411Z,1.50
2018-12-06T06:40:33.299Z,1.49
2018-12-06T06:43:02.880Z,1.48
2018-12-06T06:45:31.617Z,1.45
2018-12-06T06:48:01.677Z,1.42
2018-12-06T06:50:31.294Z,1.39
2018-12-06T06:53:07.065Z,1.35
2018-12-06T06:55:35.937Z,1.33
2018-12-06T06:58:04.751Z,1.30
2018-12-06T07:00:34.088Z,1.27
2018-12-06T07:03:03.644Z,1.21
2018-12-06T07:05:32.613Z,1.20
2018-12-06T07:08:11.025Z,1.17
2018-12-06T07:10:40.961Z,1.17
2018-12-06T07:13:10.117Z,1.12
2018-12-06T07:15:39.223Z,1.06
2018-12-06T07:18:09.941Z,1.02
2018-12-06T07:20:38.894Z,1.00
2018-12-06T07:23:08.960Z,0.98
2018-12-06T07:25:46.017Z,0.96
2018-12-06T07:28:10.211Z,0.95
2018-12-06T07:30:41.027Z,0.91
2018-12-06T07:33:10.856Z,0.90
2018-12-06T07:35:40.505Z,0.87
2018-12-06T07:38:10.004Z,0.88
2018-12-06T07:40:40.874Z,0.87
2018-12-06T07:43:10.006Z,0.87
2018-12-06T07:45:40.285Z,0.84
2018-12-06T07:48:10.214Z,0.82
2018-12-06T07:50:39.950Z,0.83
2018-12-06T07:53:09.873Z,0.83
2018-12-06T07:55:39.617Z,0.83
2018-12-06T07:58:08.998Z,0.83
2018-12-06T08:00:39.021Z,0.81
2018-12-06T08:03:09.017Z,0.84
2018-12-06T08:05:38.369Z,0.85
2018-12-06T08:08:07.931Z,0.87
2018-12-06T08:10:38.715Z,0.90
2018-12-06T08:13:07.880Z,0.92
2018-12-06T08:15:36.933Z,0.95
2018-12-06T08:18:05.788Z,0.98
2018-12-06T08:20:34.590Z,0.99
2018-12-06T08:23:05.065Z,1.02
2018-12-06T08:25:34.607Z,1.06
2018-12-06T08:28:03.433Z,1.10
2018-12-06T08:30:32.855Z,1.13
2018-12-06T08:33:01.978Z,1.19
2018-12-06T08:35:30.920Z,1.24
2018-12-06T08:37:59.902Z,1.31
2018-12-06T08:40:28.771Z,1.35
2018-12-06T08:42:58.359Z,1.39
2018-12-06T08:45:27.342Z,1.44
2018-12-06T08:47:56.960Z,1.46
2018-12-06T08:50:26.497Z,1.52
2018-12-06T08:52:55.241Z,1.61
2018-12-06T08:55:23.990Z,1.79
2018-12-06T08:57:53.419Z,1.95
2018-12-06T09:00:22.136Z,2.06
2018-12-06T09:02:51.792Z,2.10
2018-12-06T09:05:20.778Z,2.18
2018-12-06T09:07:49.593Z,2.20
2018-12-06T09:10:18.456Z,2.17
2018-12-06T09:12:47.252Z,2.21
2018-12-06T09:15:16.247Z,2.22
2018-12-06T09:17:45.082Z,2.22
2018-12-06T09:20:13.851Z,2.28
2018-12-06T09:22:43.622Z,2.35
2018-12-06T09:25:12.961Z,2.39
2018-12-06T09:27:41.817Z,2.41
2018-12-06T09:30:10.801Z,2.40
2018-12-06T09:32:40.184Z,2.52
2018-12-06T09:35:09.241Z,2.58
2018-12-06T09:37:38.020Z,2.63
2018-12-06T09:40:08.310Z,2.69
2018-12-06T09:42:39.157Z,2.69
2018-12-06T09:45:09.526Z,2.72
2018-12-06T09:47:39.775Z,2.84
2018-12-06T09:50:09.438Z,2.81
2018-12-06T09:52:39.521Z,2.81
2018-12-06T09:55:09.752Z,2.81
2018-12-06T09:57:39.500Z,2.85
2018-12-06T10:00:10.895Z,2.90
2018-12-06T10:02:41.807Z,2.88
2018-12-06T10:05:12.005Z,2.93
2018-12-06T10:07:41.207Z,2.90
2018-12-06T10:10:10.401Z,2.91
2018-12-06T10:12:40.262Z,2.91
2018-12-06T10:15:10.190Z,2.93
2018-12-06T10:17:39.949Z,2.98
2018-12-06T10:20:10.261Z,3.00
2018-12-06T10:22:39.403Z,3.02
2018-12-06T10:25:10.356Z,3.03
2018-12-06T10:27:39.449Z,3.05
2018-12-06T10:30:09.635Z,3.04
2018-12-06T10:32:39.291Z,3.02
2018-12-06T10:35:08.530Z,3.09
2018-12-06T10:37:37.565Z,3.10
2018-12-06T10:40:06.624Z,3.13
2018-12-06T10:42:36.100Z,3.17
2018-12-06T10:45:05.554Z,3.21
2018-12-06T10:47:35.402Z,3.20
2018-12-06T10:50:04.871Z,3.29
2018-12-06T10:52:34.254Z,3.27
2018-12-06T10:55:03.930Z,3.23
2018-12-06T10:57:32.671Z,3.28
2018-12-06T11:00:01.388Z,3.23
2018-12-06T11:02:36.953Z,3.22
2018-12-06T11:05:06.878Z,3.18
2018-12-06T11:07:35.709Z,3.15
2018-12-06T11:10:04.630Z,3.14
2018-12-06T11:12:33.358Z,3.15
2018-12-06T11:15:02.125Z,3.13
2018-12-06T11:17:32.712Z,3.11
2018-12-06T11:20:01.446Z,3.12
2018-12-06T11:22:30.211Z,3.10
2018-12-06T11:24:59.732Z,3.13
2018-12-06T11:27:28.737Z,3.13
2018-12-06T11:29:57.517Z,3.11
2018-12-06T11:32:26.989Z,3.13
2018-12-06T11:34:55.723Z,3.12
2018-12-06T11:37:24.449Z,3.08
2018-12-06T11:39:53.235Z,3.07
2018-12-06T11:42:22.839Z,3.05
2018-12-06T11:44:51.576Z,3.04
2018-12-06T11:47:21.030Z,3.00
2018-12-06T11:49:49.828Z,2.99
2018-12-06T11:52:19.080Z,2.96
2018-12-06T11:54:47.814Z,2.97
2018-12-06T11:57:16.610Z,2.95
2018-12-06T11:59:45.536Z,2.96
2018-12-06T12:02:14.924Z,2.98
2018-12-06T12:04:44.213Z,3.01
2018-12-06T12:07:12.979Z,3.02
2018-12-06T12:09:41.801Z,3.04
2018-12-06T12:12:11.389Z,3.08
2018-12-06T12:14:40.422Z,3.14
2018-12-06T12:17:09.811Z,3.15
2018-12-06T12:19:38.815Z,3.14
2018-12-06T12:22:07.646Z,3.10
2018-12-06T12:24:37.927Z,3.13
2018-12-06T12:27:06.686Z,3.08
2018-12-06T12:29:35.479Z,3.03
2018-12-06T12:32:05.919Z,3.02
2018-12-06T12:34:34.709Z,3.00
2018-12-06T12:37:03.470Z,3.01
2018-12-06T12:39:32.228Z,3.01
2018-12-06T12:42:01.520Z,2.92
2018-12-06T12:44:30.362Z,2.84
2018-12-06T12:47:00.244Z,2.80
2018-12-06T12:49:29.619Z,2.75
2018-12-06T12:52:01.006Z,2.70
2018-12-06T12:54:29.888Z,2.68
2018-12-06T12:56:58.742Z,2.65
2018-12-06T12:59:27.470Z,2.66
2018-12-06T13:01:56.910Z,2.66
2018-12-06T13:04:26.249Z,2.67
2018-12-06T13:07:00.389Z,2.70
2018-12-06T13:09:29.362Z,2.70
2018-12-06T13:11:58.941Z,2.73
2018-12-06T13:14:27.865Z,2.75
2018-12-06T13:16:56.658Z,2.77
2018-12-06T13:19:25.499Z,2.80
2018-12-06T13:21:54.238Z,2.78
2018-12-06T13:24:23.791Z,2.74
2018-12-06T13:26:52.528Z,2.80
2018-12-06T13:29:21.290Z,2.79
2018-12-06T13:31:50.890Z,2.78
2018-12-06T13:34:19.665Z,2.75
2018-12-06T13:36:48.504Z,2.74
2018-12-06T13:39:17.256Z,2.72
2018-12-06T13:41:46.649Z,2.73
2018-12-06T13:44:15.440Z,2.76
2018-12-06T13:46:44.841Z,2.74
2018-12-06T13:49:13.629Z,2.71
2018-12-06T13:51:42.922Z,2.68
2018-12-06T13:54:11.722Z,2.67
2018-12-06T13:56:40.711Z,2.67
2018-12-06T13:59:09.544Z,2.63
2018-12-06T14:01:40.058Z,2.61
2018-12-06T14:04:09.716Z,2.60
2018-12-06T14:06:38.476Z,2.56
2018-12-06T14:09:07.994Z,2.59
2018-12-06T14:11:37.656Z,2.55
2018-12-06T14:14:06.402Z,2.49
2018-12-06T14:16:35.149Z,2.55
2018-12-06T14:19:03.950Z,2.48
2018-12-06T14:21:32.982Z,2.50
2018-12-06T14:24:03.046Z,2.55
2018-12-06T14:26:31.801Z,2.55
2018-12-06T14:29:00.532Z,2.56
2018-12-06T14:31:30.048Z,2.60
2018-12-06T14:33:58.880Z,2.63
2018-12-06T14:36:28.429Z,2.62
2018-12-06T14:38:57.232Z,2.59
2018-12-06T14:41:26.995Z,2.59
2018-12-06T14:43:57.379Z,2.58
2018-12-06T14:46:26.709Z,2.52
2018-12-06T14:48:55.448Z,2.55
2018-12-06T14:51:25.618Z,2.50
2018-12-06T14:53:54.359Z,2.49
2018-12-06T14:56:25.129Z,2.46
2018-12-06T14:58:53.930Z,2.47
2018-12-06T15:01:22.668Z,2.48
2018-12-06T15:03:52.127Z,2.49
2018-12-06T15:09:01.579Z,2.52
2018-12-06T15:11:31.133Z,2.52
2018-12-06T15:13:59.831Z,2.55
2018-12-06T15:16:28.599Z,2.59
2018-12-06T15:18:57.576Z,2.62
2018-12-06T15:21:26.362Z,2.64
2018-12-06T15:23:56.061Z,2.67
2018-12-06T15:26:25.458Z,2.69
2018-12-06T15:28:54.218Z,2.70
2018-12-06T15:31:23.581Z,2.74
2018-12-06T15:33:52.282Z,2.71
2018-12-06T15:36:21.858Z,2.68
2018-12-06T15:38:50.585Z,2.71
2018-12-06T15:41:20.229Z,2.76
2018-12-06T15:43:48.966Z,2.79
2018-12-06T15:46:18.429Z,2.82
2018-12-06T15:48:47.289Z,2.84
2018-12-06T15:51:16.797Z,2.85
2018-12-06T15:53:45.554Z,2.86
2018-12-06T15:56:14.303Z,2.85
2018-12-06T15:58:43.053Z,2.74
2018-12-06T16:01:18.593Z,2.75
2018-12-06T16:03:48.289Z,2.72
2018-12-06T16:06:17.019Z,2.70
2018-12-06T16:08:45.758Z,2.71
2018-12-06T16:11:15.517Z,2.68
2018-12-06T16:13:44.376Z,2.67
2018-12-06T16:16:13.130Z,2.66
2018-12-06T16:18:41.962Z,2.66
2018-12-06T16:21:10.938Z,2.71
2018-12-06T16:23:41.087Z,2.73
2018-12-06T16:26:11.542Z,2.73
2018-12-06T16:28:40.476Z,2.75
2018-12-06T16:31:09.946Z,2.76
2018-12-06T16:33:38.872Z,2.75
2018-12-06T16:36:07.754Z,2.75
2018-12-06T16:38:37.487Z,2.75
2018-12-06T16:41:07.401Z,2.76
2018-12-06T16:43:36.174Z,2.80
2018-12-06T16:46:05.702Z,2.83
2018-12-06T16:48:34.645Z,2.89
2018-12-06T16:51:04.061Z,2.91
2018-12-06T16:53:32.806Z,2.94
2018-12-06T16:56:01.589Z,2.92
2018-12-06T16:58:30.395Z,2.91
2018-12-06T17:00:59.367Z,2.87
2018-12-06T17:03:29.481Z,2.84
2018-12-06T17:05:58.373Z,2.81
2018-12-06T17:08:28.398Z,2.84
2018-12-06T17:10:59.026Z,2.89
2018-12-06T17:13:29.221Z,2.85
2018-12-06T17:15:58.568Z,2.86
2018-12-06T17:18:27.476Z,2.88
2018-12-06T17:20:56.334Z,2.92
2018-12-06T17:23:25.736Z,2.92
2018-12-06T17:25:55.088Z,2.90
2018-12-06T17:31:15.698Z,2.78
2018-12-06T17:33:44.468Z,2.77
2018-12-06T17:36:13.957Z,2.75
2018-12-06T17:38:42.755Z,2.73
2018-12-06T17:41:12.354Z,2.72
2018-12-06T17:43:41.409Z,2.70
2018-12-06T17:46:11.142Z,2.69
2018-12-06T17:48:40.360Z,2.67
2018-12-06T17:51:11.303Z,2.64
2018-12-06T17:53:41.821Z,2.65
2018-12-06T17:56:10.762Z,2.63
2018-12-06T17:58:40.723Z,2.65
2018-12-06T18:01:10.749Z,2.65
2018-12-06T18:03:40.622Z,2.66
2018-12-06T18:06:09.501Z,2.65
2018-12-06T18:08:40.720Z,2.67
2018-12-06T18:11:09.923Z,2.66
2018-12-06T18:13:39.675Z,2.72
2018-12-06T18:16:09.077Z,2.77
2018-12-06T18:18:40.539Z,2.72
2018-12-06T18:21:09.782Z,2.81
2018-12-06T18:23:39.557Z,2.85
2018-12-06T18:26:10.254Z,2.88
2018-12-06T18:28:39.176Z,2.93
2018-12-06T18:31:09.512Z,2.96
2018-12-06T18:33:38.910Z,2.95
2018-12-06T18:36:22.009Z,2.94
2018-12-06T18:38:50.727Z,2.92
2018-12-06T18:41:20.255Z,2.91
2018-12-06T18:43:49.684Z,2.94
2018-12-06T18:46:18.993Z,2.98
2018-12-06T18:48:47.787Z,3.01
2018-12-06T18:51:17.186Z,3.03
2018-12-06T18:53:46.080Z,3.04
2018-12-06T18:56:15.002Z,3.06
2018-12-06T18:58:43.829Z,3.00
2018-12-06T19:01:13.204Z,3.08
2018-12-06T19:03:42.603Z,3.08
2018-12-06T19:06:13.177Z,3.10
2018-12-06T19:08:42.145Z,3.11
2018-12-06T19:11:11.690Z,3.05
2018-12-06T19:13:40.490Z,3.09
2018-12-06T19:16:09.521Z,3.11
2018-12-06T19:18:38.400Z,3.12
2018-12-06T19:21:07.161Z,3.11
2018-12-06T19:23:36.772Z,3.10
2018-12-06T19:26:06.350Z,3.11
2018-12-06T19:28:35.073Z,3.13
2018-12-06T19:31:04.573Z,3.15
2018-12-06T19:33:33.890Z,3.13
2018-12-06T19:36:02.625Z,3.11
2018-12-06T19:38:31.468Z,3.11
2018-12-06T19:41:01.710Z,3.12
2018-12-06T19:43:31.282Z,3.11
2018-12-06T19:46:00.620Z,3.14
2018-12-06T19:48:29.408Z,3.07
2018-12-06T19:50:58.862Z,3.06
2018-12-06T19:53:27.626Z,3.10
2018-12-06T19:55:56.374Z,3.05
2018-12-06T19:58:25.085Z,3.10
2018-12-06T20:00:54.107Z,3.07
2018-12-06T20:03:23.658Z,3.10
2018-12-06T20:05:52.497Z,3.11
2018-12-06T20:08:21.222Z,3.12
2018-12-06T20:10:50.048Z,3.15
2018-12-06T20:13:18.819Z,3.16
2018-12-06T20:15:47.641Z,3.18
2018-12-06T20:19:19.039Z,3.19
2018-12-06T20:21:47.753Z,3.21
2018-12-06T20:24:17.219Z,3.21
2018-12-06T20:26:46.577Z,3.22
2018-12-06T20:29:16.390Z,3.26
2018-12-06T20:31:46.068Z,3.31
2018-12-06T20:34:14.841Z,3.33
2018-12-06T20:36:43.586Z,3.36
2018-12-06T20:39:12.504Z,3.38
2018-12-06T20:41:41.787Z,3.38
2018-12-06T20:44:11.652Z,3.39
2018-12-06T20:46:41.056Z,3.45
2018-12-06T20:49:11.061Z,3.46
2018-12-06T20:51:40.664Z,3.49
2018-12-06T20:54:09.849Z,3.50
2018-12-06T20:56:39.229Z,3.50
2018-12-06T20:59:08.165Z,3.50
2018-12-06T21:01:36.957Z,3.51
2018-12-06T21:04:06.399Z,3.52
2018-12-06T21:06:35.184Z,3.55
2018-12-06T21:09:06.081Z,3.61
2018-12-06T21:11:35.084Z,3.59
2018-12-06T21:14:04.342Z,3.59
2018-12-06T21:16:33.372Z,3.59
2018-12-06T21:19:02.318Z,3.59
2018-12-06T21:21:31.390Z,3.58
2018-12-06T21:24:00.927Z,3.57
2018-12-06T21:26:30.203Z,3.59
2018-12-06T21:28:59.559Z,3.60
2018-12-06T21:31:28.922Z,3.62
2018-12-06T21:33:57.751Z,3.61
2018-12-06T21:36:26.475Z,3.57
2018-12-06T21:38:55.336Z,3.55
2018-12-06T21:41:24.829Z,3.56
2018-12-06T21:43:55.010Z,3.55
2018-12-06T21:46:24.460Z,3.53
2018-12-06T21:48:53.303Z,3.53
2018-12-06T21:51:22.722Z,3.54
2018-12-06T21:53:51.485Z,3.56
2018-12-06T21:56:20.250Z,3.52
2018-12-06T21:58:49.009Z,3.51
2018-12-06T22:01:17.818Z,3.50
2018-12-06T22:03:47.269Z,3.45
2018-12-06T22:06:16.011Z,3.43
2018-12-06T22:08:44.758Z,3.44
2018-12-06T22:11:13.554Z,3.44
2018-12-06T22:13:42.432Z,3.44
2018-12-06T22:16:11.813Z,3.45
2018-12-06T22:18:40.698Z,3.43
2018-12-06T22:21:09.594Z,3.42
2018-12-06T22:23:39.298Z,3.42
2018-12-06T22:28:53.221Z,3.41
2018-12-06T22:31:22.620Z,3.43
2018-12-06T22:33:51.507Z,3.40
2018-12-06T22:36:20.399Z,3.37
2018-12-06T22:38:49.190Z,3.35
2018-12-06T22:41:19.210Z,3.36
2018-12-06T22:43:48.551Z,3.36
2018-12-06T22:46:18.028Z,3.36
2018-12-06T22:48:46.738Z,3.34
2018-12-06T22:51:16.103Z,3.33
2018-12-06T22:53:44.887Z,3.31
2018-12-06T22:56:14.359Z,3.28
2018-12-06T22:58:43.194Z,3.28
2018-12-06T23:01:12.738Z,3.30
2018-12-06T23:03:42.609Z,3.28
2018-12-06T23:06:12.058Z,3.29
2018-12-06T23:08:41.098Z,3.28
2018-12-06T23:11:10.535Z,3.23
2018-12-06T23:13:40.207Z,3.28
2018-12-06T23:16:09.287Z,3.20
2018-12-06T23:18:38.138Z,3.16
2018-12-06T23:21:07.286Z,3.04
2018-12-06T23:23:36.932Z,3.05
2018-12-06T23:26:06.625Z,3.07
2018-12-06T23:28:35.414Z,3.04
2018-12-06T23:31:05.114Z,3.04
2018-12-06T23:33:33.809Z,3.05
2018-12-06T23:36:02.637Z,3.03
2018-12-06T23:38:31.467Z,3.05
2018-12-06T23:41:01.607Z,3.06
2018-12-06T23:43:30.488Z,3.05
2018-12-06T23:46:00.086Z,3.02
2018-12-06T23:48:28.900Z,3.01
2018-12-06T23:51:08.269Z,3.03
2018-12-06T23:53:37.039Z,3.02
2018-12-06T23:56:05.788Z,3.01
2018-12-06T23:58:34.586Z,2.97
